Hannibal Center, New York
Current Conditions -  °F | °C
As of 2:54 PM on Friday 31 Oct 2014 (Local Time) from KFZY Reporting Station
Overcast Overcast  
Wind Chill: 50°   Ceiling: 7000
Heat Index: 50°   Visibility: 10mi
Dew Point: 35°   Wind: 5mph
Humidity: 57%   Direction: 70°ENE
Pressure: 29.94"   Gusts: NA
Location:  43.3091°N, 76.5484°W
Report Text: KFZY 311854Z AUTO 07004KT 10SM SCT060 OVC070 10/02 A2994 RMK AO2 RAB22E35 SLP142 P0000 T01000017
Loading
Personal Weather Stations






























Interactive Weather Map
Tropical Storm Tracking
New forecast layout! Learn more

10-Day Weather Forecast

Advertisements
Track Severe Weather on mobile